Terminal Aerodrome Forecast
Issued by NWS

Home | Current Version | Previous Version | Graphics & Text | Print | Product List | Glossary On
Versions: 1 2 3 4 5 6 7 8 9 10 11 12 13 14 15 16 17
000
FTUS43 KBIS 301100
TAFJMS
TAF
KJMS 301134Z 3012/3112 33004KT P6SM SKC
     FM301500 09007KT P6SM SKC
     FM301800 14011KT P6SM SKC
     FM310600 13009KT 6SM -SHRA OVC040=

USA.gov is the U.S. government's official web portal to all federal, state and local government web resources and services.